sensor_id;sensor_type;location;lat;lon;timestamp;P1;durP1;ratioP1;P2;durP2;ratioP2
20443;SDS011;10381;53.730;10.010;2023-07-30T00:02:22;37.37;;;9.97;;
20443;SDS011;10381;53.730;10.010;2023-07-30T00:06:23;27.27;;;9.18;;
20443;SDS011;10381;53.730;10.010;2023-07-30T00:10:23;31.43;;;9.80;;
20443;SDS011;10381;53.730;10.010;2023-07-30T00:14:23;24.20;;;9.30;;
20443;SDS011;10381;53.730;10.010;2023-07-30T00:18:23;27.73;;;9.80;;
20443;SDS011;10381;53.730;10.010;2023-07-30T00:22:24;20.13;;;8.97;;
20443;SDS011;10381;53.730;10.010;2023-07-30T00:26:24;25.43;;;8.87;;
20443;SDS011;10381;53.730;10.010;2023-07-30T00:30:26;25.63;;;10.45;;
20443;SDS011;10381;53.730;10.010;2023-07-30T00:34:26;23.45;;;9.73;;
20443;SDS011;10381;53.730;10.010;2023-07-30T00:38:26;32.03;;;11.20;;
20443;SDS011;10381;53.730;10.010;2023-07-30T00:42:27;21.05;;;8.70;;
20443;SDS011;10381;53.730;10.010;2023-07-30T00:46:27;24.53;;;9.53;;
20443;SDS011;10381;53.730;10.010;2023-07-30T00:50:28;27.07;;;10.23;;
20443;SDS011;10381;53.730;10.010;2023-07-30T00:54:28;33.03;;;9.93;;
20443;SDS011;10381;53.730;10.010;2023-07-30T00:58:29;25.25;;;10.35;;
20443;SDS011;10381;53.730;10.010;2023-07-30T01:02:30;29.05;;;10.25;;
20443;SDS011;10381;53.730;10.010;2023-07-30T01:06:31;34.83;;;9.73;;
20443;SDS011;10381;53.730;10.010;2023-07-30T01:10:32;46.22;;;9.48;;
20443;SDS011;10381;53.730;10.010;2023-07-30T01:14:35;20.40;;;7.97;;
20443;SDS011;10381;53.730;10.010;2023-07-30T01:18:38;19.42;;;8.25;;
20443;SDS011;10381;53.730;10.010;2023-07-30T01:22:38;19.67;;;8.15;;
20443;SDS011;10381;53.730;10.010;2023-07-30T01:26:40;18.87;;;7.50;;
20443;SDS011;10381;53.730;10.010;2023-07-30T01:30:44;26.40;;;7.70;;
20443;SDS011;10381;53.730;10.010;2023-07-30T01:34:45;15.10;;;6.47;;
20443;SDS011;10381;53.730;10.010;2023-07-30T01:38:49;24.25;;;7.85;;
20443;SDS011;10381;53.730;10.010;2023-07-30T01:42:50;15.98;;;7.20;;
20443;SDS011;10381;53.730;10.010;2023-07-30T01:46:51;20.00;;;7.47;;
20443;SDS011;10381;53.730;10.010;2023-07-30T01:50:51;25.40;;;8.27;;
20443;SDS011;10381;53.730;10.010;2023-07-30T01:54:51;20.50;;;6.83;;
20443;SDS011;10381;53.730;10.010;2023-07-30T01:58:52;15.60;;;7.40;;
20443;SDS011;10381;53.730;10.010;2023-07-30T02:02:52;13.23;;;7.10;;
20443;SDS011;10381;53.730;10.010;2023-07-30T02:06:53;34.47;;;7.83;;
20443;SDS011;10381;53.730;10.010;2023-07-30T02:10:56;18.37;;;7.27;;
20443;SDS011;10381;53.730;10.010;2023-07-30T02:14:57;19.42;;;7.72;;
20443;SDS011;10381;53.730;10.010;2023-07-30T02:18:58;14.73;;;6.93;;
20443;SDS011;10381;53.730;10.010;2023-07-30T02:22:58;18.30;;;7.63;;
20443;SDS011;10381;53.730;10.010;2023-07-30T02:26:58;12.47;;;7.10;;
20443;SDS011;10381;53.730;10.010;2023-07-30T02:30:58;27.10;;;8.67;;
20443;SDS011;10381;53.730;10.010;2023-07-30T02:34:59;16.30;;;7.40;;
20443;SDS011;10381;53.730;10.010;2023-07-30T02:38:59;29.50;;;8.10;;
20443;SDS011;10381;53.730;10.010;2023-07-30T02:42:59;18.17;;;8.30;;
20443;SDS011;10381;53.730;10.010;2023-07-30T02:46:59;15.87;;;7.33;;
20443;SDS011;10381;53.730;10.010;2023-07-30T02:51:00;22.43;;;9.10;;
20443;SDS011;10381;53.730;10.010;2023-07-30T02:55:00;16.73;;;8.87;;
20443;SDS011;10381;53.730;10.010;2023-07-30T02:59:00;22.27;;;9.70;;
20443;SDS011;10381;53.730;10.010;2023-07-30T03:03:01;23.38;;;9.48;;
20443;SDS011;10381;53.730;10.010;2023-07-30T03:07:01;23.13;;;9.63;;
20443;SDS011;10381;53.730;10.010;2023-07-30T03:11:01;23.88;;;10.18;;
20443;SDS011;10381;53.730;10.010;2023-07-30T03:15:02;29.63;;;11.53;;
20443;SDS011;10381;53.730;10.010;2023-07-30T03:19:02;25.33;;;10.27;;
20443;SDS011;10381;53.730;10.010;2023-07-30T03:23:02;34.90;;;12.80;;
20443;SDS011;10381;53.730;10.010;2023-07-30T03:27:03;31.33;;;11.97;;
20443;SDS011;10381;53.730;10.010;2023-07-30T03:31:03;58.50;;;13.45;;
20443;SDS011;10381;53.730;10.010;2023-07-30T03:35:04;48.00;;;14.93;;
20443;SDS011;10381;53.730;10.010;2023-07-30T03:39:04;29.88;;;13.15;;
20443;SDS011;10381;53.730;10.010;2023-07-30T03:43:05;45.97;;;15.55;;
20443;SDS011;10381;53.730;10.010;2023-07-30T03:47:05;35.80;;;14.57;;
20443;SDS011;10381;53.730;10.010;2023-07-30T03:51:05;27.95;;;13.07;;
20443;SDS011;10381;53.730;10.010;2023-07-30T03:55:07;50.15;;;15.45;;
20443;SDS011;10381;53.730;10.010;2023-07-30T03:59:07;49.30;;;14.82;;
20443;SDS011;10381;53.730;10.010;2023-07-30T04:03:07;43.67;;;14.20;;
20443;SDS011;10381;53.730;10.010;2023-07-30T04:07:08;38.00;;;14.37;;
20443;SDS011;10381;53.730;10.010;2023-07-30T04:11:08;43.37;;;14.00;;
20443;SDS011;10381;53.730;10.010;2023-07-30T04:15:08;47.15;;;16.02;;
20443;SDS011;10381;53.730;10.010;2023-07-30T04:19:09;74.22;;;14.65;;
20443;SDS011;10381;53.730;10.010;2023-07-30T04:23:09;41.50;;;13.90;;
20443;SDS011;10381;53.730;10.010;2023-07-30T04:27:09;30.60;;;12.60;;
20443;SDS011;10381;53.730;10.010;2023-07-30T04:31:10;36.27;;;12.73;;
20443;SDS011;10381;53.730;10.010;2023-07-30T04:35:10;36.73;;;13.07;;
20443;SDS011;10381;53.730;10.010;2023-07-30T04:39:10;31.38;;;13.18;;
20443;SDS011;10381;53.730;10.010;2023-07-30T04:43:12;30.35;;;11.63;;
20443;SDS011;10381;53.730;10.010;2023-07-30T04:47:12;28.77;;;12.27;;
20443;SDS011;10381;53.730;10.010;2023-07-30T04:51:12;29.07;;;11.90;;
20443;SDS011;10381;53.730;10.010;2023-07-30T04:55:13;29.00;;;11.87;;
20443;SDS011;10381;53.730;10.010;2023-07-30T04:59:13;36.33;;;13.38;;
20443;SDS011;10381;53.730;10.010;2023-07-30T05:03:13;37.40;;;12.13;;
20443;SDS011;10381;53.730;10.010;2023-07-30T05:07:14;22.63;;;12.07;;
20443;SDS011;10381;53.730;10.010;2023-07-30T05:11:14;26.37;;;13.43;;
20443;SDS011;10381;53.730;10.010;2023-07-30T05:15:14;32.80;;;13.57;;
20443;SDS011;10381;53.730;10.010;2023-07-30T05:19:15;31.43;;;14.50;;
20443;SDS011;10381;53.730;10.010;2023-07-30T05:23:16;27.17;;;14.52;;
20443;SDS011;10381;53.730;10.010;2023-07-30T05:27:16;39.15;;;14.45;;
20443;SDS011;10381;53.730;10.010;2023-07-30T05:31:16;24.52;;;13.00;;
20443;SDS011;10381;53.730;10.010;2023-07-30T05:35:17;27.37;;;13.33;;
20443;SDS011;10381;53.730;10.010;2023-07-30T05:39:18;25.58;;;13.85;;
20443;SDS011;10381;53.730;10.010;2023-07-30T05:43:18;29.30;;;14.53;;
20443;SDS011;10381;53.730;10.010;2023-07-30T05:47:19;25.27;;;17.60;;
20443;SDS011;10381;53.730;10.010;2023-07-30T05:51:19;31.30;;;14.10;;
20443;SDS011;10381;53.730;10.010;2023-07-30T05:55:19;25.30;;;13.93;;
20443;SDS011;10381;53.730;10.010;2023-07-30T05:59:20;21.92;;;13.07;;
20443;SDS011;10381;53.730;10.010;2023-07-30T06:03:20;23.45;;;12.60;;
20443;SDS011;10381;53.730;10.010;2023-07-30T06:07:20;16.48;;;10.00;;
20443;SDS011;10381;53.730;10.010;2023-07-30T06:11:21;20.05;;;9.55;;
20443;SDS011;10381;53.730;10.010;2023-07-30T06:15:22;15.75;;;8.25;;
20443;SDS011;10381;53.730;10.010;2023-07-30T06:19:22;11.20;;;6.07;;
20443;SDS011;10381;53.730;10.010;2023-07-30T06:23:23;17.20;;;6.80;;
20443;SDS011;10381;53.730;10.010;2023-07-30T06:27:23;12.20;;;7.13;;
20443;SDS011;10381;53.730;10.010;2023-07-30T06:31:23;45.15;;;17.80;;
20443;SDS011;10381;53.730;10.010;2023-07-30T06:35:24;22.33;;;8.13;;
20443;SDS011;10381;53.730;10.010;2023-07-30T06:39:24;23.33;;;7.43;;
20443;SDS011;10381;53.730;10.010;2023-07-30T06:43:24;19.17;;;7.75;;
20443;SDS011;10381;53.730;10.010;2023-07-30T06:47:24;17.60;;;7.00;;
20443;SDS011;10381;53.730;10.010;2023-07-30T06:51:25;20.03;;;9.70;;
20443;SDS011;10381;53.730;10.010;2023-07-30T06:55:25;25.07;;;10.00;;
20443;SDS011;10381;53.730;10.010;2023-07-30T06:59:26;28.17;;;9.13;;
20443;SDS011;10381;53.730;10.010;2023-07-30T07:03:26;23.37;;;9.20;;
20443;SDS011;10381;53.730;10.010;2023-07-30T07:07:26;25.17;;;9.17;;
20443;SDS011;10381;53.730;10.010;2023-07-30T07:11:27;19.93;;;8.83;;
20443;SDS011;10381;53.730;10.010;2023-07-30T07:15:27;22.67;;;9.47;;
20443;SDS011;10381;53.730;10.010;2023-07-30T07:19:27;15.03;;;8.93;;
20443;SDS011;10381;53.730;10.010;2023-07-30T07:23:27;23.60;;;11.13;;
20443;SDS011;10381;53.730;10.010;2023-07-30T07:27:29;39.22;;;11.20;;
20443;SDS011;10381;53.730;10.010;2023-07-30T07:31:29;24.07;;;9.27;;
20443;SDS011;10381;53.730;10.010;2023-07-30T07:35:29;23.60;;;11.03;;
20443;SDS011;10381;53.730;10.010;2023-07-30T07:39:29;29.30;;;11.73;;
20443;SDS011;10381;53.730;10.010;2023-07-30T07:43:30;28.77;;;12.87;;
20443;SDS011;10381;53.730;10.010;2023-07-30T07:47:30;29.97;;;12.23;;
20443;SDS011;10381;53.730;10.010;2023-07-30T07:51:30;26.90;;;11.53;;
20443;SDS011;10381;53.730;10.010;2023-07-30T07:55:30;25.07;;;11.87;;
20443;SDS011;10381;53.730;10.010;2023-07-30T07:59:31;21.53;;;11.73;;
20443;SDS011;10381;53.730;10.010;2023-07-30T08:03:31;33.57;;;13.10;;
20443;SDS011;10381;53.730;10.010;2023-07-30T08:07:31;33.83;;;12.87;;
20443;SDS011;10381;53.730;10.010;2023-07-30T08:11:31;33.77;;;15.63;;
20443;SDS011;10381;53.730;10.010;2023-07-30T08:15:32;42.03;;;14.17;;
20443;SDS011;10381;53.730;10.010;2023-07-30T08:19:33;23.13;;;13.15;;
20443;SDS011;10381;53.730;10.010;2023-07-30T08:23:33;24.83;;;13.70;;
20443;SDS011;10381;53.730;10.010;2023-07-30T08:27:33;27.97;;;12.97;;
20443;SDS011;10381;53.730;10.010;2023-07-30T08:31:33;28.77;;;13.50;;
20443;SDS011;10381;53.730;10.010;2023-07-30T08:35:34;22.17;;;14.00;;
20443;SDS011;10381;53.730;10.010;2023-07-30T08:39:34;24.17;;;14.32;;
20443;SDS011;10381;53.730;10.010;2023-07-30T08:43:34;28.38;;;13.65;;
20443;SDS011;10381;53.730;10.010;2023-07-30T08:47:35;23.67;;;13.73;;
20443;SDS011;10381;53.730;10.010;2023-07-30T08:51:36;23.98;;;13.45;;
20443;SDS011;10381;53.730;10.010;2023-07-30T08:55:39;27.02;;;13.95;;
20443;SDS011;10381;53.730;10.010;2023-07-30T08:59:49;25.77;;;15.13;;
20443;SDS011;10381;53.730;10.010;2023-07-30T09:03:54;18.83;;;14.55;;
20443;SDS011;10381;53.730;10.010;2023-07-30T09:07:58;22.45;;;16.27;;
20443;SDS011;10381;53.730;10.010;2023-07-30T09:11:59;19.90;;;14.03;;
20443;SDS011;10381;53.730;10.010;2023-07-30T09:16:00;26.08;;;15.93;;
20443;SDS011;10381;53.730;10.010;2023-07-30T09:20:09;25.90;;;15.52;;
20443;SDS011;10381;53.730;10.010;2023-07-30T09:24:09;23.27;;;15.23;;
20443;SDS011;10381;53.730;10.010;2023-07-30T09:28:10;22.73;;;15.57;;
20443;SDS011;10381;53.730;10.010;2023-07-30T09:32:10;23.33;;;15.57;;
20443;SDS011;10381;53.730;10.010;2023-07-30T09:36:10;15.95;;;14.20;;
20443;SDS011;10381;53.730;10.010;2023-07-30T09:40:14;27.35;;;15.57;;
20443;SDS011;10381;53.730;10.010;2023-07-30T09:44:18;24.08;;;15.77;;
20443;SDS011;10381;53.730;10.010;2023-07-30T09:48:20;25.27;;;15.52;;
20443;SDS011;10381;53.730;10.010;2023-07-30T09:52:21;22.23;;;14.70;;
20443;SDS011;10381;53.730;10.010;2023-07-30T09:56:21;17.08;;;15.27;;
20443;SDS011;10381;53.730;10.010;2023-07-30T10:00:22;22.70;;;15.90;;
20443;SDS011;10381;53.730;10.010;2023-07-30T10:04:22;29.38;;;16.42;;
20443;SDS011;10381;53.730;10.010;2023-07-30T10:08:24;21.08;;;15.63;;
20443;SDS011;10381;53.730;10.010;2023-07-30T10:12:31;20.75;;;16.02;;
20443;SDS011;10381;53.730;10.010;2023-07-30T10:16:34;21.42;;;16.52;;
20443;SDS011;10381;53.730;10.010;2023-07-30T10:20:34;22.07;;;15.33;;
20443;SDS011;10381;53.730;10.010;2023-07-30T10:24:35;22.98;;;14.20;;
20443;SDS011;10381;53.730;10.010;2023-07-30T10:28:36;29.50;;;17.17;;
20443;SDS011;10381;53.730;10.010;2023-07-30T10:32:39;25.23;;;17.00;;
20443;SDS011;10381;53.730;10.010;2023-07-30T10:36:41;24.05;;;17.00;;
20443;SDS011;10381;53.730;10.010;2023-07-30T10:40:59;23.23;;;16.23;;
20443;SDS011;10381;53.730;10.010;2023-07-30T10:45:01;21.02;;;15.55;;
20443;SDS011;10381;53.730;10.010;2023-07-30T10:49:03;22.90;;;16.80;;
20443;SDS011;10381;53.730;10.010;2023-07-30T10:53:03;18.50;;;15.10;;
20443;SDS011;10381;53.730;10.010;2023-07-30T10:57:04;22.80;;;16.10;;
20443;SDS011;10381;53.730;10.010;2023-07-30T11:01:08;31.05;;;15.40;;
20443;SDS011;10381;53.730;10.010;2023-07-30T11:05:12;22.95;;;16.13;;
20443;SDS011;10381;53.730;10.010;2023-07-30T11:09:20;19.83;;;15.80;;
20443;SDS011;10381;53.730;10.010;2023-07-30T11:13:22;23.40;;;18.00;;
20443;SDS011;10381;53.730;10.010;2023-07-30T11:17:22;22.48;;;16.00;;
20443;SDS011;10381;53.730;10.010;2023-07-30T11:21:24;21.02;;;16.63;;
20443;SDS011;10381;53.730;10.010;2023-07-30T11:25:25;15.60;;;13.93;;
20443;SDS011;10381;53.730;10.010;2023-07-30T11:29:25;18.50;;;12.33;;
20443;SDS011;10381;53.730;10.010;2023-07-30T11:33:27;16.50;;;14.23;;
20443;SDS011;10381;53.730;10.010;2023-07-30T11:37:28;15.48;;;12.30;;
20443;SDS011;10381;53.730;10.010;2023-07-30T11:41:28;13.95;;;11.85;;
20443;SDS011;10381;53.730;10.010;2023-07-30T11:45:29;12.70;;;11.23;;
20443;SDS011;10381;53.730;10.010;2023-07-30T11:49:29;16.97;;;9.40;;
20443;SDS011;10381;53.730;10.010;2023-07-30T11:57:50;7.28;;;4.90;;
20443;SDS011;10381;53.730;10.010;2023-07-30T12:01:51;7.72;;;5.03;;
20443;SDS011;10381;53.730;10.010;2023-07-30T12:05:52;5.32;;;4.68;;
20443;SDS011;10381;53.730;10.010;2023-07-30T12:09:53;8.23;;;5.37;;
20443;SDS011;10381;53.730;10.010;2023-07-30T12:13:53;14.38;;;6.78;;
20443;SDS011;10381;53.730;10.010;2023-07-30T12:17:53;12.93;;;5.37;;
20443;SDS011;10381;53.730;10.010;2023-07-30T12:21:54;13.18;;;7.05;;
20443;SDS011;10381;53.730;10.010;2023-07-30T12:25:54;12.27;;;8.07;;
20443;SDS011;10381;53.730;10.010;2023-07-30T12:29:55;15.83;;;8.13;;
20443;SDS011;10381;53.730;10.010;2023-07-30T12:33:55;8.30;;;5.75;;
20443;SDS011;10381;53.730;10.010;2023-07-30T12:37:55;8.52;;;5.07;;
20443;SDS011;10381;53.730;10.010;2023-07-30T12:41:56;8.88;;;5.60;;
20443;SDS011;10381;53.730;10.010;2023-07-30T12:45:56;8.65;;;5.57;;
20443;SDS011;10381;53.730;10.010;2023-07-30T12:49:56;8.00;;;6.03;;
20443;SDS011;10381;53.730;10.010;2023-07-30T12:53:58;9.15;;;5.10;;
20443;SDS011;10381;53.730;10.010;2023-07-30T12:57:59;6.25;;;5.55;;
20443;SDS011;10381;53.730;10.010;2023-07-30T13:01:59;11.75;;;6.00;;
20443;SDS011;10381;53.730;10.010;2023-07-30T13:06:00;9.67;;;6.80;;
20443;SDS011;10381;53.730;10.010;2023-07-30T13:10:06;13.43;;;7.77;;
20443;SDS011;10381;53.730;10.010;2023-07-30T13:14:07;15.23;;;10.95;;
20443;SDS011;10381;53.730;10.010;2023-07-30T13:18:13;13.10;;;11.77;;
20443;SDS011;10381;53.730;10.010;2023-07-30T13:22:13;24.83;;;17.85;;
20443;SDS011;10381;53.730;10.010;2023-07-30T13:26:14;15.27;;;10.50;;
20443;SDS011;10381;53.730;10.010;2023-07-30T13:30:14;6.57;;;4.87;;
20443;SDS011;10381;53.730;10.010;2023-07-30T13:34:14;8.73;;;4.82;;
20443;SDS011;10381;53.730;10.010;2023-07-30T13:38:15;9.13;;;4.50;;
20443;SDS011;10381;53.730;10.010;2023-07-30T13:42:15;5.40;;;4.20;;
20443;SDS011;10381;53.730;10.010;2023-07-30T13:46:15;6.07;;;3.78;;
20443;SDS011;10381;53.730;10.010;2023-07-30T13:50:16;6.33;;;3.60;;
20443;SDS011;10381;53.730;10.010;2023-07-30T13:54:16;5.67;;;3.90;;
20443;SDS011;10381;53.730;10.010;2023-07-30T13:58:16;13.38;;;4.88;;
20443;SDS011;10381;53.730;10.010;2023-07-30T14:02:17;7.97;;;3.80;;
20443;SDS011;10381;53.730;10.010;2023-07-30T14:06:17;12.30;;;4.57;;
20443;SDS011;10381;53.730;10.010;2023-07-30T14:10:17;4.53;;;3.90;;
20443;SDS011;10381;53.730;10.010;2023-07-30T14:14:18;8.48;;;4.50;;
20443;SDS011;10381;53.730;10.010;2023-07-30T14:18:21;5.25;;;4.47;;
20443;SDS011;10381;53.730;10.010;2023-07-30T14:22:22;7.90;;;6.05;;
20443;SDS011;10381;53.730;10.010;2023-07-30T14:26:22;6.13;;;5.50;;
20443;SDS011;10381;53.730;10.010;2023-07-30T14:30:22;6.57;;;4.23;;
20443;SDS011;10381;53.730;10.010;2023-07-30T14:34:23;5.65;;;4.90;;
20443;SDS011;10381;53.730;10.010;2023-07-30T14:38:23;10.13;;;7.70;;
20443;SDS011;10381;53.730;10.010;2023-07-30T14:42:23;9.77;;;8.87;;
20443;SDS011;10381;53.730;10.010;2023-07-30T14:46:24;10.73;;;9.15;;
20443;SDS011;10381;53.730;10.010;2023-07-30T14:50:24;7.97;;;6.27;;
20443;SDS011;10381;53.730;10.010;2023-07-30T14:54:24;13.73;;;8.50;;
20443;SDS011;10381;53.730;10.010;2023-07-30T14:58:24;9.93;;;8.90;;
20443;SDS011;10381;53.730;10.010;2023-07-30T15:02:25;10.45;;;9.45;;
20443;SDS011;10381;53.730;10.010;2023-07-30T15:06:25;12.70;;;11.52;;
20443;SDS011;10381;53.730;10.010;2023-07-30T15:10:28;13.05;;;10.82;;
20443;SDS011;10381;53.730;10.010;2023-07-30T15:14:29;13.98;;;11.10;;
20443;SDS011;10381;53.730;10.010;2023-07-30T15:18:29;12.47;;;11.27;;
20443;SDS011;10381;53.730;10.010;2023-07-30T15:22:29;11.83;;;10.83;;
20443;SDS011;10381;53.730;10.010;2023-07-30T15:26:30;13.02;;;11.60;;
20443;SDS011;10381;53.730;10.010;2023-07-30T15:30:30;11.97;;;10.97;;
20443;SDS011;10381;53.730;10.010;2023-07-30T15:34:30;14.00;;;10.93;;
20443;SDS011;10381;53.730;10.010;2023-07-30T15:38:31;10.80;;;9.73;;
20443;SDS011;10381;53.730;10.010;2023-07-30T15:42:31;15.13;;;10.05;;
20443;SDS011;10381;53.730;10.010;2023-07-30T15:46:31;9.90;;;9.05;;
20443;SDS011;10381;53.730;10.010;2023-07-30T15:50:35;8.90;;;8.30;;
20443;SDS011;10381;53.730;10.010;2023-07-30T15:54:36;9.10;;;8.13;;
20443;SDS011;10381;53.730;10.010;2023-07-30T15:58:37;15.05;;;7.90;;
20443;SDS011;10381;53.730;10.010;2023-07-30T16:02:37;11.87;;;10.63;;
20443;SDS011;10381;53.730;10.010;2023-07-30T16:06:38;12.15;;;11.05;;
20443;SDS011;10381;53.730;10.010;2023-07-30T16:10:38;16.85;;;14.95;;
20443;SDS011;10381;53.730;10.010;2023-07-30T16:14:38;21.15;;;18.67;;
20443;SDS011;10381;53.730;10.010;2023-07-30T16:18:39;17.75;;;16.25;;
20443;SDS011;10381;53.730;10.010;2023-07-30T16:22:43;20.73;;;14.77;;
20443;SDS011;10381;53.730;10.010;2023-07-30T16:26:44;14.77;;;13.35;;
20443;SDS011;10381;53.730;10.010;2023-07-30T16:30:44;14.40;;;12.77;;
20443;SDS011;10381;53.730;10.010;2023-07-30T16:34:45;15.57;;;9.47;;
20443;SDS011;10381;53.730;10.010;2023-07-30T16:38:45;17.23;;;13.00;;
20443;SDS011;10381;53.730;10.010;2023-07-30T16:42:45;14.23;;;12.83;;
20443;SDS011;10381;53.730;10.010;2023-07-30T16:46:45;13.13;;;11.90;;
20443;SDS011;10381;53.730;10.010;2023-07-30T16:50:46;10.57;;;9.68;;
20443;SDS011;10381;53.730;10.010;2023-07-30T16:54:47;12.10;;;10.88;;
20443;SDS011;10381;53.730;10.010;2023-07-30T16:58:47;12.47;;;11.20;;
20443;SDS011;10381;53.730;10.010;2023-07-30T17:02:47;10.23;;;9.23;;
20443;SDS011;10381;53.730;10.010;2023-07-30T17:06:48;12.63;;;11.37;;
20443;SDS011;10381;53.730;10.010;2023-07-30T17:10:48;10.97;;;10.10;;
20443;SDS011;10381;53.730;10.010;2023-07-30T17:14:48;10.00;;;9.10;;
20443;SDS011;10381;53.730;10.010;2023-07-30T17:18:48;12.67;;;9.20;;
20443;SDS011;10381;53.730;10.010;2023-07-30T17:22:52;9.45;;;8.50;;
20443;SDS011;10381;53.730;10.010;2023-07-30T17:26:52;9.00;;;8.30;;
20443;SDS011;10381;53.730;10.010;2023-07-30T17:30:52;9.77;;;8.27;;
20443;SDS011;10381;53.730;10.010;2023-07-30T17:34:55;8.27;;;7.45;;
20443;SDS011;10381;53.730;10.010;2023-07-30T17:38:56;8.00;;;5.60;;
20443;SDS011;10381;53.730;10.010;2023-07-30T17:42:56;7.73;;;7.03;;
20443;SDS011;10381;53.730;10.010;2023-07-30T17:46:56;8.30;;;7.60;;
20443;SDS011;10381;53.730;10.010;2023-07-30T17:50:57;7.17;;;5.90;;
20443;SDS011;10381;53.730;10.010;2023-07-30T17:54:57;6.67;;;6.07;;
20443;SDS011;10381;53.730;10.010;2023-07-30T17:58:57;6.30;;;4.07;;
20443;SDS011;10381;53.730;10.010;2023-07-30T18:02:58;9.40;;;3.90;;
20443;SDS011;10381;53.730;10.010;2023-07-30T18:06:58;10.17;;;5.47;;
20443;SDS011;10381;53.730;10.010;2023-07-30T18:10:58;7.18;;;5.30;;
20443;SDS011;10381;53.730;10.010;2023-07-30T18:14:58;4.17;;;3.83;;
20443;SDS011;10381;53.730;10.010;2023-07-30T18:18:59;9.70;;;4.20;;
20443;SDS011;10381;53.730;10.010;2023-07-30T18:22:59;4.23;;;2.97;;
20443;SDS011;10381;53.730;10.010;2023-07-30T18:27:00;6.22;;;3.38;;
20443;SDS011;10381;53.730;10.010;2023-07-30T18:31:00;4.28;;;3.22;;
20443;SDS011;10381;53.730;10.010;2023-07-30T18:35:01;8.07;;;4.75;;
20443;SDS011;10381;53.730;10.010;2023-07-30T18:39:01;8.80;;;3.60;;
20443;SDS011;10381;53.730;10.010;2023-07-30T18:43:02;10.80;;;3.45;;
20443;SDS011;10381;53.730;10.010;2023-07-30T18:47:03;4.32;;;2.90;;
20443;SDS011;10381;53.730;10.010;2023-07-30T18:51:04;6.70;;;3.53;;
20443;SDS011;10381;53.730;10.010;2023-07-30T18:55:04;5.97;;;3.43;;
20443;SDS011;10381;53.730;10.010;2023-07-30T18:59:05;9.60;;;3.90;;
20443;SDS011;10381;53.730;10.010;2023-07-30T19:03:06;4.53;;;2.97;;
20443;SDS011;10381;53.730;10.010;2023-07-30T19:07:06;4.85;;;3.42;;
20443;SDS011;10381;53.730;10.010;2023-07-30T19:11:06;4.93;;;3.13;;
20443;SDS011;10381;53.730;10.010;2023-07-30T19:15:07;3.53;;;2.63;;
20443;SDS011;10381;53.730;10.010;2023-07-30T19:19:08;7.38;;;2.92;;
20443;SDS011;10381;53.730;10.010;2023-07-30T19:23:09;14.70;;;2.92;;
20443;SDS011;10381;53.730;10.010;2023-07-30T19:27:09;10.37;;;2.97;;
20443;SDS011;10381;53.730;10.010;2023-07-30T19:31:09;4.03;;;2.50;;
20443;SDS011;10381;53.730;10.010;2023-07-30T19:35:12;8.38;;;2.53;;
20443;SDS011;10381;53.730;10.010;2023-07-30T19:39:12;2.53;;;1.80;;
20443;SDS011;10381;53.730;10.010;2023-07-30T19:43:12;5.70;;;2.47;;
20443;SDS011;10381;53.730;10.010;2023-07-30T19:47:13;3.03;;;2.40;;
20443;SDS011;10381;53.730;10.010;2023-07-30T19:51:14;9.25;;;2.10;;
20443;SDS011;10381;53.730;10.010;2023-07-30T19:55:16;3.17;;;2.30;;
20443;SDS011;10381;53.730;10.010;2023-07-30T19:59:16;4.43;;;2.20;;
20443;SDS011;10381;53.730;10.010;2023-07-30T20:03:16;3.60;;;2.30;;
20443;SDS011;10381;53.730;10.010;2023-07-30T20:07:17;3.40;;;2.03;;
20443;SDS011;10381;53.730;10.010;2023-07-30T20:11:17;2.30;;;2.10;;
20443;SDS011;10381;53.730;10.010;2023-07-30T20:15:17;3.53;;;1.80;;
20443;SDS011;10381;53.730;10.010;2023-07-30T20:19:17;5.67;;;1.90;;
20443;SDS011;10381;53.730;10.010;2023-07-30T20:23:18;3.00;;;1.90;;
20443;SDS011;10381;53.730;10.010;2023-07-30T20:27:20;3.20;;;1.90;;
20443;SDS011;10381;53.730;10.010;2023-07-30T20:31:21;3.60;;;2.00;;
20443;SDS011;10381;53.730;10.010;2023-07-30T20:35:21;6.67;;;2.07;;
20443;SDS011;10381;53.730;10.010;2023-07-30T20:39:21;3.73;;;2.23;;
20443;SDS011;10381;53.730;10.010;2023-07-30T20:43:22;11.87;;;2.10;;
20443;SDS011;10381;53.730;10.010;2023-07-30T20:47:22;3.83;;;1.97;;
20443;SDS011;10381;53.730;10.010;2023-07-30T20:51:22;5.57;;;1.50;;
20443;SDS011;10381;53.730;10.010;2023-07-30T20:55:22;4.60;;;2.27;;
20443;SDS011;10381;53.730;10.010;2023-07-30T20:59:23;5.65;;;2.67;;
20443;SDS011;10381;53.730;10.010;2023-07-30T21:03:23;5.47;;;2.77;;
20443;SDS011;10381;53.730;10.010;2023-07-30T21:07:23;8.63;;;2.45;;
20443;SDS011;10381;53.730;10.010;2023-07-30T21:11:24;6.40;;;2.67;;
20443;SDS011;10381;53.730;10.010;2023-07-30T21:15:24;10.40;;;2.87;;
20443;SDS011;10381;53.730;10.010;2023-07-30T21:19:24;9.38;;;2.58;;
20443;SDS011;10381;53.730;10.010;2023-07-30T21:23:25;9.32;;;2.92;;
20443;SDS011;10381;53.730;10.010;2023-07-30T21:27:25;4.47;;;2.70;;
20443;SDS011;10381;53.730;10.010;2023-07-30T21:31:26;14.40;;;4.10;;
20443;SDS011;10381;53.730;10.010;2023-07-30T21:35:26;6.00;;;3.70;;
20443;SDS011;10381;53.730;10.010;2023-07-30T21:39:27;4.38;;;2.53;;
20443;SDS011;10381;53.730;10.010;2023-07-30T21:43:27;11.60;;;3.20;;
20443;SDS011;10381;53.730;10.010;2023-07-30T21:47:27;5.55;;;2.40;;
20443;SDS011;10381;53.730;10.010;2023-07-30T21:51:28;9.50;;;3.28;;
20443;SDS011;10381;53.730;10.010;2023-07-30T21:55:28;13.33;;;3.40;;
20443;SDS011;10381;53.730;10.010;2023-07-30T21:59:28;10.30;;;3.10;;
20443;SDS011;10381;53.730;10.010;2023-07-30T22:03:28;4.67;;;2.70;;
20443;SDS011;10381;53.730;10.010;2023-07-30T22:07:29;9.48;;;2.92;;
20443;SDS011;10381;53.730;10.010;2023-07-30T22:11:29;5.80;;;2.83;;
20443;SDS011;10381;53.730;10.010;2023-07-30T22:15:31;21.55;;;3.58;;
20443;SDS011;10381;53.730;10.010;2023-07-30T22:19:31;8.37;;;3.43;;
20443;SDS011;10381;53.730;10.010;2023-07-30T22:23:31;11.87;;;3.27;;
20443;SDS011;10381;53.730;10.010;2023-07-30T22:27:32;5.45;;;3.13;;
20443;SDS011;10381;53.730;10.010;2023-07-30T22:31:32;18.33;;;3.70;;
20443;SDS011;10381;53.730;10.010;2023-07-30T22:35:32;4.40;;;2.77;;
20443;SDS011;10381;53.730;10.010;2023-07-30T22:39:33;9.63;;;3.60;;
20443;SDS011;10381;53.730;10.010;2023-07-30T22:43:33;10.23;;;3.87;;
20443;SDS011;10381;53.730;10.010;2023-07-30T22:47:33;8.00;;;3.53;;
20443;SDS011;10381;53.730;10.010;2023-07-30T22:51:33;7.38;;;3.50;;
20443;SDS011;10381;53.730;10.010;2023-07-30T22:55:34;5.93;;;3.50;;
20443;SDS011;10381;53.730;10.010;2023-07-30T22:59:34;10.53;;;3.97;;
20443;SDS011;10381;53.730;10.010;2023-07-30T23:03:34;8.33;;;3.33;;
20443;SDS011;10381;53.730;10.010;2023-07-30T23:07:35;11.40;;;4.47;;
20443;SDS011;10381;53.730;10.010;2023-07-30T23:11:35;15.47;;;4.07;;
20443;SDS011;10381;53.730;10.010;2023-07-30T23:15:35;16.13;;;4.50;;
20443;SDS011;10381;53.730;10.010;2023-07-30T23:19:35;6.23;;;3.07;;
20443;SDS011;10381;53.730;10.010;2023-07-30T23:23:36;22.10;;;3.90;;
20443;SDS011;10381;53.730;10.010;2023-07-30T23:27:36;7.75;;;3.55;;
20443;SDS011;10381;53.730;10.010;2023-07-30T23:31:36;20.13;;;4.33;;